Time;durP1;ratioP1;P1;durP2;ratioP2;P2;SDS_P1;SDS_P2;PMS_P1;PMS_P2;Temp;Humidity;BMP_temperature;BMP_pressure;BME280_temperature;BME280_humidity;BME280_pressure;Samples;Min_cycle;Max_cycle;Signal;HPM_P1;HPM_P2
2023/04/10 00:02:23;;;;;;;8.83;6.77;;;10.80;99.90;;;;;;5076679;28;20537;-58
2023/04/10 00:04:50;;;;;;;9.53;6.60;;;10.90;99.90;;;;;;5075539;28;20197;-59
2023/04/10 00:07:17;;;;;;;8.73;6.30;;;10.80;99.90;;;;;;5068315;28;20203;-59
2023/04/10 00:09:44;;;;;;;11.17;6.80;;;10.90;99.90;;;;;;5070905;28;20557;-58
2023/04/10 00:12:11;;;;;;;8.50;6.53;;;10.60;99.90;;;;;;5062088;28;20200;-60
2023/04/10 00:14:38;;;;;;;7.67;6.33;;;10.70;99.90;;;;;;5074801;28;20715;-59
2023/04/10 00:17:05;;;;;;;8.17;6.43;;;10.60;99.90;;;;;;5069878;28;20199;-58
2023/04/10 00:19:32;;;;;;;7.63;6.07;;;10.60;99.90;;;;;;5071675;28;20272;-58
2023/04/10 00:21:59;;;;;;;7.07;5.90;;;10.50;99.90;;;;;;5071537;28;20231;-58
2023/04/10 00:24:26;;;;;;;8.07;6.33;;;10.50;99.90;;;;;;5071122;28;20609;-58
2023/04/10 00:26:52;;;;;;;9.70;6.90;;;10.60;99.90;;;;;;5074482;28;20629;-58
2023/04/10 00:29:19;;;;;;;8.73;5.87;;;10.60;99.90;;;;;;5070927;28;20290;-58
2023/04/10 00:31:46;;;;;;;7.30;6.00;;;10.60;99.90;;;;;;5071385;28;20203;-58
2023/04/10 00:34:13;;;;;;;8.77;6.33;;;10.50;99.90;;;;;;5071656;28;20210;-58
2023/04/10 00:36:40;;;;;;;8.20;6.27;;;10.60;99.90;;;;;;5071236;28;20264;-62
2023/04/10 00:39:08;;;;;;;6.80;5.60;;;10.50;99.90;;;;;;5075425;28;20338;-58
2023/04/10 00:41:35;;;;;;;7.57;6.23;;;10.50;99.90;;;;;;5069913;28;22142;-58
2023/04/10 00:44:02;;;;;;;10.30;6.90;;;10.50;99.90;;;;;;5075858;28;20216;-58
2023/04/10 00:46:30;;;;;;;6.57;5.27;;;10.60;99.90;;;;;;5073001;28;20868;-60
2023/04/10 00:48:57;;;;;;;7.83;5.80;;;10.60;99.90;;;;;;5071243;28;20289;-60
2023/04/10 00:51:25;;;;;;;6.87;5.37;;;10.50;99.90;;;;;;5073927;28;20839;-60
2023/04/10 00:53:55;;;;;;;9.57;6.43;;;10.60;99.90;;;;;;5071948;28;20694;-58
2023/04/10 00:56:23;;;;;;;7.50;5.83;;;10.50;99.90;;;;;;5058006;28;20698;-58
2023/04/10 00:58:50;;;;;;;8.57;6.17;;;10.60;99.90;;;;;;5076231;28;20292;-58
2023/04/10 01:01:17;;;;;;;9.27;5.60;;;10.60;99.90;;;;;;5055294;28;20203;-59
2023/04/10 01:03:45;;;;;;;8.93;6.47;;;10.50;99.90;;;;;;5075928;28;20218;-58
2023/04/10 01:06:48;;;;;;;8.30;5.37;;;10.50;99.90;;;;;;5068052;28;20200;-59
2023/04/10 01:09:38;;;;;;;5.83;4.73;;;10.60;99.90;;;;;;5058884;28;20210;-58
2023/04/10 01:12:29;;;;;;;7.43;5.40;;;10.60;99.90;;;;;;5058457;28;20215;-59
2023/04/10 01:15:09;;;;;;;7.67;5.40;;;10.50;99.90;;;;;;5054739;28;20247;-58
2023/04/10 01:17:57;;;;;;;6.80;5.30;;;10.70;99.90;;;;;;5066826;28;20216;-58
2023/04/10 01:20:28;;;;;;;7.93;5.00;;;10.60;99.90;;;;;;5071153;28;20203;-58
2023/04/10 01:23:34;;;;;;;6.37;4.67;;;10.50;99.90;;;;;;5073946;28;20232;-58
2023/04/10 01:26:07;;;;;;;7.93;5.63;;;10.50;99.90;;;;;;5071458;28;20197;-60
2023/04/10 01:28:59;;;;;;;6.50;5.23;;;10.70;99.90;;;;;;5052349;28;20206;-61
2023/04/10 01:31:37;;;;;;;9.37;5.40;;;10.60;99.90;;;;;;5048417;28;20254;-60
2023/04/10 01:34:08;;;;;;;6.77;5.27;;;10.60;99.90;;;;;;5067112;28;20309;-60
2023/04/10 01:36:48;;;;;;;7.27;5.20;;;10.60;99.90;;;;;;5074779;28;20303;-60
2023/04/10 01:39:18;;;;;;;5.80;4.63;;;10.70;99.90;;;;;;5076286;28;20644;-60
2023/04/10 01:41:46;;;;;;;7.33;5.20;;;10.60;99.90;;;;;;5077507;28;20656;-60
2023/04/10 01:44:14;;;;;;;9.07;4.90;;;10.60;99.90;;;;;;5075400;28;20242;-58
2023/04/10 01:46:43;;;;;;;6.33;4.93;;;10.60;99.90;;;;;;5078519;28;20655;-58
2023/04/10 01:49:12;;;;;;;6.70;5.50;;;10.50;99.90;;;;;;5077314;28;20282;-58
2023/04/10 01:51:39;;;;;;;6.67;5.40;;;10.60;99.90;;;;;;5077080;28;20199;-58
2023/04/10 01:54:07;;;;;;;8.40;5.53;;;10.60;99.90;;;;;;5074556;28;20217;-59
2023/04/10 01:56:35;;;;;;;7.63;5.40;;;10.60;99.90;;;;;;5079580;28;20283;-58
2023/04/10 01:59:02;;;;;;;6.80;5.47;;;10.70;99.90;;;;;;5077302;28;20798;-59
2023/04/10 02:01:29;;;;;;;7.17;5.27;;;10.80;99.90;;;;;;5072306;28;20322;-58
2023/04/10 02:03:57;;;;;;;5.10;4.17;;;10.70;99.90;;;;;;5076686;28;20209;-58
2023/04/10 02:06:59;;;;;;;5.73;4.37;;;10.70;99.90;;;;;;5075172;28;20768;-58
2023/04/10 02:09:58;;;;;;;6.97;5.30;;;10.60;99.90;;;;;;5065294;28;20619;-61
2023/04/10 02:12:28;;;;;;;6.80;5.10;;;10.50;99.90;;;;;;5077122;28;20580;-59
2023/04/10 02:15:00;;;;;;;6.57;4.60;;;10.60;99.90;;;;;;5075350;28;20199;-61
2023/04/10 02:17:29;;;;;;;6.07;4.87;;;10.60;99.90;;;;;;5070087;28;20763;-58
2023/04/10 02:19:57;;;;;;;5.67;4.83;;;10.70;99.90;;;;;;5079032;28;20204;-58
2023/04/10 02:22:25;;;;;;;6.07;4.90;;;10.70;99.90;;;;;;5078805;28;20244;-58
2023/04/10 02:24:53;;;;;;;6.97;5.23;;;10.70;99.90;;;;;;5072680;28;20602;-59
2023/04/10 02:27:28;;;;;;;6.87;5.00;;;10.70;99.90;;;;;;5076931;28;20197;-58
2023/04/10 02:29:55;;;;;;;5.80;5.10;;;10.70;99.90;;;;;;5074953;28;20296;-58
2023/04/10 02:32:23;;;;;;;7.07;4.90;;;10.60;99.90;;;;;;5074301;28;20235;-59
2023/04/10 02:34:50;;;;;;;6.47;4.87;;;10.60;99.90;;;;;;5075814;28;20223;-58
2023/04/10 02:37:17;;;;;;;6.63;5.50;;;10.50;99.90;;;;;;5066431;28;20705;-58
2023/04/10 02:39:44;;;;;;;6.47;5.00;;;10.50;99.90;;;;;;5077116;28;20266;-58
2023/04/10 02:42:11;;;;;;;5.47;4.87;;;10.50;99.90;;;;;;5074112;28;20471;-61
2023/04/10 02:44:40;;;;;;;5.80;4.87;;;10.50;99.90;;;;;;5072876;28;20215;-59
2023/04/10 02:47:07;;;;;;;5.53;4.60;;;10.60;99.90;;;;;;5078727;28;20204;-58
2023/04/10 02:49:34;;;;;;;6.47;4.43;;;10.50;99.90;;;;;;5076125;28;20198;-58
2023/04/10 02:52:01;;;;;;;7.50;5.70;;;10.40;99.90;;;;;;5073512;28;20617;-58
2023/04/10 02:54:28;;;;;;;6.50;5.57;;;10.50;99.90;;;;;;5074905;28;20224;-58
2023/04/10 02:56:56;;;;;;;7.90;4.90;;;10.30;99.90;;;;;;5072002;28;20620;-58
2023/04/10 02:59:23;;;;;;;7.03;5.40;;;10.30;99.90;;;;;;5075482;28;20307;-58
2023/04/10 03:01:53;;;;;;;6.73;4.90;;;10.40;99.90;;;;;;5075581;28;20830;-58
2023/04/10 03:04:20;;;;;;;5.40;4.40;;;10.30;99.90;;;;;;5072987;28;20216;-58
2023/04/10 03:06:47;;;;;;;8.50;5.27;;;10.30;99.90;;;;;;5072058;28;20702;-59
2023/04/10 03:09:14;;;;;;;6.13;4.77;;;10.30;99.90;;;;;;5074866;28;20198;-59
2023/04/10 03:11:40;;;;;;;5.63;5.00;;;10.30;99.90;;;;;;5072609;28;20206;-59
2023/04/10 03:14:08;;;;;;;6.23;5.00;;;10.40;99.90;;;;;;5074917;28;20255;-59
2023/04/10 03:16:35;;;;;;;5.43;4.80;;;10.50;99.90;;;;;;5076508;28;20210;-59
2023/04/10 03:19:03;;;;;;;5.93;4.87;;;10.50;99.90;;;;;;5075967;28;20330;-59
2023/04/10 03:21:30;;;;;;;6.27;4.80;;;10.60;99.90;;;;;;5076656;28;20701;-58
2023/04/10 03:23:57;;;;;;;7.00;4.80;;;10.70;99.90;;;;;;5055689;28;20913;-59
2023/04/10 03:26:24;;;;;;;7.80;5.17;;;10.50;99.90;;;;;;5074908;28;20260;-59
2023/04/10 03:28:51;;;;;;;6.23;5.07;;;10.50;99.90;;;;;;5074093;28;20204;-59
2023/04/10 03:31:19;;;;;;;6.97;5.37;;;10.40;99.90;;;;;;5072754;28;20280;-59
2023/04/10 03:33:46;;;;;;;6.83;4.90;;;10.40;99.90;;;;;;5073390;28;20228;-59
2023/04/10 03:36:13;;;;;;;9.10;5.40;;;10.60;99.90;;;;;;5064071;28;20236;-60
2023/04/10 03:38:40;;;;;;;5.90;4.87;;;10.60;99.90;;;;;;5073228;28;20215;-59
2023/04/10 03:41:06;;;;;;;7.00;5.37;;;10.60;99.90;;;;;;5076354;28;20214;-59
2023/04/10 03:43:33;;;;;;;7.43;5.97;;;10.50;99.90;;;;;;5073777;28;20243;-59
2023/04/10 03:46:00;;;;;;;6.93;5.80;;;10.30;99.90;;;;;;5070285;28;20650;-58
2023/04/10 03:48:29;;;;;;;5.93;4.93;;;10.40;99.90;;;;;;5074723;28;20254;-59
2023/04/10 03:50:56;;;;;;;6.57;5.57;;;10.40;99.90;;;;;;5076058;28;20229;-58
2023/04/10 03:53:23;;;;;;;7.13;5.80;;;10.40;99.90;;;;;;5074226;28;20565;-58
2023/04/10 03:55:53;;;;;;;7.13;5.77;;;10.20;99.90;;;;;;5074016;28;20356;-59
2023/04/10 03:58:20;;;;;;;6.47;5.30;;;10.00;99.90;;;;;;5073622;28;20205;-59
2023/04/10 04:00:47;;;;;;;7.30;6.30;;;10.00;99.90;;;;;;5075540;28;20202;-59
2023/04/10 04:03:14;;;;;;;10.03;7.33;;;10.00;99.90;;;;;;5075778;28;20223;-59
2023/04/10 04:05:41;;;;;;;8.07;6.07;;;9.80;1.00;;;;;;5070636;28;20210;-59
2023/04/10 04:08:08;;;;;;;6.50;5.73;;;9.80;99.90;;;;;;5076141;28;20299;-59
2023/04/10 04:10:35;;;;;;;9.13;6.47;;;9.70;1.00;;;;;;5055212;28;20283;-59
2023/04/10 04:13:02;;;;;;;8.10;6.23;;;9.80;1.00;;;;;;5071157;28;20204;-59
2023/04/10 04:15:29;;;;;;;7.70;6.17;;;9.70;99.90;;;;;;5075270;28;20831;-59
2023/04/10 04:17:56;;;;;;;8.53;6.37;;;9.70;1.00;;;;;;5076145;28;20230;-59
2023/04/10 04:20:23;;;;;;;8.03;6.13;;;9.70;1.00;;;;;;5076126;28;20570;-59
2023/04/10 04:22:50;;;;;;;9.07;6.40;;;9.70;1.00;;;;;;5073662;28;20203;-59
2023/04/10 04:25:18;;;;;;;9.83;6.40;;;9.60;1.00;;;;;;5075784;28;20211;-59
2023/04/10 04:27:45;;;;;;;6.80;5.90;;;9.60;1.00;;;;;;5074177;28;20207;-59
2023/04/10 04:30:12;;;;;;;7.67;5.83;;;9.50;1.00;;;;;;5073069;28;20294;-59
2023/04/10 04:32:39;;;;;;;7.67;6.17;;;9.50;1.00;;;;;;5075053;28;20632;-58
2023/04/10 04:35:07;;;;;;;8.47;6.77;;;9.50;1.00;;;;;;5057226;28;20211;-59
2023/04/10 04:37:34;;;;;;;8.10;6.53;;;9.50;1.00;;;;;;5076731;28;20195;-59
2023/04/10 04:40:01;;;;;;;8.50;6.43;;;9.50;1.00;;;;;;5075614;28;20207;-58
2023/04/10 04:42:28;;;;;;;8.60;6.00;;;9.30;1.00;;;;;;5076493;28;20227;-58
2023/04/10 04:44:55;;;;;;;8.30;6.67;;;9.30;1.00;;;;;;5069558;28;20706;-59
2023/04/10 04:47:23;;;;;;;8.57;6.60;;;9.30;1.00;;;;;;5074788;28;20227;-59
2023/04/10 04:49:50;;;;;;;9.07;6.80;;;9.30;1.00;;;;;;5077039;28;20789;-58
2023/04/10 04:52:16;;;;;;;9.83;6.93;;;9.20;1.00;;;;;;5075649;28;20198;-59
2023/04/10 04:54:43;;;;;;;10.13;6.57;;;9.20;1.00;;;;;;5073149;28;20715;-59
2023/04/10 04:57:10;;;;;;;8.13;6.93;;;9.30;1.00;;;;;;5076563;28;20203;-59
2023/04/10 04:59:37;;;;;;;8.47;6.67;;;9.30;1.00;;;;;;5056213;28;20213;-59
2023/04/10 05:02:04;;;;;;;7.83;6.23;;;9.30;1.00;;;;;;5056426;28;20199;-59
2023/04/10 05:04:31;;;;;;;8.40;6.50;;;9.40;1.00;;;;;;5071935;28;20216;-59
2023/04/10 05:06:58;;;;;;;8.97;6.63;;;9.30;1.00;;;;;;5076918;28;20204;-58
2023/04/10 05:09:25;;;;;;;9.80;6.97;;;9.20;1.00;;;;;;5079979;28;20198;-59
2023/04/10 05:11:53;;;;;;;8.13;6.67;;;9.30;1.00;;;;;;5077559;28;20202;-59
2023/04/10 05:14:21;;;;;;;9.07;7.03;;;9.20;1.00;;;;;;5078517;28;20428;-59
2023/04/10 05:16:48;;;;;;;7.93;6.60;;;9.20;1.00;;;;;;5081020;28;20206;-59
2023/04/10 05:19:15;;;;;;;9.77;6.70;;;9.10;1.00;;;;;;5081790;28;20276;-59
2023/04/10 05:21:42;;;;;;;7.83;6.63;;;9.10;1.00;;;;;;5081174;28;20203;-59
2023/04/10 05:24:09;;;;;;;7.93;6.30;;;9.10;1.00;;;;;;5077424;28;20548;-59
2023/04/10 05:26:36;;;;;;;8.60;6.93;;;9.20;1.00;;;;;;5070983;28;20272;-59
2023/04/10 05:29:03;;;;;;;7.70;6.00;;;9.20;1.00;;;;;;5078980;28;20209;-59
2023/04/10 05:31:30;;;;;;;10.20;6.80;;;9.20;1.00;;;;;;5079062;28;20305;-59
2023/04/10 05:33:57;;;;;;;8.50;6.10;;;9.10;1.00;;;;;;5078758;28;20248;-59
2023/04/10 05:36:24;;;;;;;7.73;6.23;;;9.20;1.00;;;;;;5060700;28;20276;-59
2023/04/10 05:38:51;;;;;;;7.03;5.77;;;9.20;1.00;;;;;;5077030;28;20214;-59
2023/04/10 05:41:18;;;;;;;7.87;6.23;;;9.20;1.00;;;;;;5061395;28;20280;-59
2023/04/10 05:43:45;;;;;;;8.47;6.80;;;9.30;1.00;;;;;;5079080;28;20672;-59
2023/04/10 05:46:12;;;;;;;9.10;6.47;;;9.20;1.00;;;;;;5081656;28;20284;-59
2023/04/10 05:48:39;;;;;;;9.73;6.40;;;9.30;1.00;;;;;;5063660;28;20303;-59
2023/04/10 05:51:06;;;;;;;8.07;5.93;;;9.40;1.00;;;;;;5080679;28;20206;-59
2023/04/10 05:53:33;;;;;;;11.63;6.50;;;9.30;1.00;;;;;;5079368;28;20257;-59
2023/04/10 05:56:00;;;;;;;7.93;6.57;;;9.30;1.00;;;;;;5081987;28;20202;-59
2023/04/10 05:58:28;;;;;;;8.87;6.23;;;9.30;1.00;;;;;;5078052;28;20249;-60
2023/04/10 06:00:56;;;;;;;9.60;6.13;;;9.20;1.00;;;;;;5071455;28;20245;-59
2023/04/10 06:03:23;;;;;;;7.67;6.13;;;9.20;1.00;;;;;;5081840;28;20840;-59
2023/04/10 06:05:50;;;;;;;8.63;6.37;;;9.20;1.00;;;;;;5080866;28;20219;-59
2023/04/10 06:08:18;;;;;;;9.20;6.97;;;9.20;1.00;;;;;;5079684;28;22332;-60
2023/04/10 06:10:48;;;;;;;9.83;6.93;;;9.30;1.00;;;;;;5075510;28;20193;-59
2023/04/10 06:13:14;;;;;;;8.80;6.53;;;9.20;1.00;;;;;;5076701;28;20195;-60
2023/04/10 06:15:42;;;;;;;7.77;6.20;;;9.40;1.00;;;;;;5075431;28;20208;-59
2023/04/10 06:18:09;;;;;;;9.80;6.33;;;9.40;99.90;;;;;;5078085;28;20886;-59
2023/04/10 06:20:36;;;;;;;8.30;6.17;;;9.50;1.00;;;;;;5076452;28;20644;-59
2023/04/10 06:23:02;;;;;;;8.70;6.23;;;9.50;99.90;;;;;;5075194;28;20307;-59
2023/04/10 06:25:29;;;;;;;8.50;5.97;;;9.60;99.90;;;;;;5072624;28;20211;-59
2023/04/10 06:27:56;;;;;;;6.93;5.70;;;9.60;99.90;;;;;;5077545;28;20617;-59
2023/04/10 06:30:23;;;;;;;8.20;6.43;;;9.60;99.90;;;;;;5073810;28;20246;-59
2023/04/10 06:32:50;;;;;;;8.40;5.83;;;9.60;99.90;;;;;;5073913;28;20210;-59
2023/04/10 06:35:17;;;;;;;7.37;5.97;;;9.60;99.90;;;;;;5075852;28;20195;-60
2023/04/10 06:37:44;;;;;;;8.07;6.33;;;9.60;99.90;;;;;;5072342;28;20302;-59
2023/04/10 06:40:13;;;;;;;8.07;6.00;;;9.60;99.90;;;;;;5077793;28;20282;-59
2023/04/10 06:42:40;;;;;;;9.33;6.03;;;9.60;99.90;;;;;;5075189;28;20205;-59
2023/04/10 06:45:08;;;;;;;7.53;6.30;;;9.70;99.90;;;;;;5070994;28;20306;-59
2023/04/10 06:47:34;;;;;;;9.23;6.60;;;9.80;99.90;;;;;;5075892;28;20658;-59
2023/04/10 06:50:01;;;;;;;8.83;6.57;;;9.90;99.90;;;;;;5078962;28;20200;-59
2023/04/10 06:52:28;;;;;;;9.57;6.20;;;9.90;99.90;;;;;;5076858;28;20659;-59
2023/04/10 06:54:55;;;;;;;7.30;5.53;;;9.90;99.90;;;;;;5071975;28;20203;-59
2023/04/10 06:57:22;;;;;;;8.33;6.33;;;9.90;99.90;;;;;;5073698;28;20232;-60
2023/04/10 06:59:49;;;;;;;7.10;5.80;;;9.90;99.90;;;;;;5073741;28;20581;-59
2023/04/10 07:02:16;;;;;;;6.73;5.23;;;10.00;99.90;;;;;;5056027;28;20643;-60
2023/04/10 07:04:42;;;;;;;8.70;6.07;;;10.00;99.90;;;;;;5057896;28;20207;-59
2023/04/10 07:07:11;;;;;;;7.83;5.90;;;10.00;99.90;;;;;;5075493;28;20271;-59
2023/04/10 07:09:38;;;;;;;7.47;5.83;;;10.10;99.90;;;;;;5075352;28;20286;-60
2023/04/10 07:12:05;;;;;;;7.77;6.27;;;10.20;99.90;;;;;;5075573;28;21503;-60
2023/04/10 07:14:35;;;;;;;6.87;5.43;;;10.20;99.90;;;;;;5072905;28;20203;-59
2023/04/10 07:17:03;;;;;;;8.50;6.20;;;10.30;99.90;;;;;;5069571;28;20203;-59
2023/04/10 07:19:30;;;;;;;8.17;5.50;;;10.30;99.90;;;;;;5073237;28;20230;-59
2023/04/10 07:21:57;;;;;;;8.23;6.33;;;10.30;99.90;;;;;;5066273;28;20716;-59
2023/04/10 07:24:24;;;;;;;7.67;6.20;;;10.40;99.90;;;;;;5077727;28;20204;-58
2023/04/10 07:26:51;;;;;;;8.27;6.40;;;10.50;99.90;;;;;;5074313;28;20200;-58
2023/04/10 07:29:19;;;;;;;7.43;5.30;;;10.50;99.90;;;;;;5074338;28;20195;-60
2023/04/10 07:31:46;;;;;;;7.43;5.80;;;10.50;99.90;;;;;;4712164;28;10000229;-58
2023/04/10 07:34:13;;;;;;;8.83;6.60;;;10.60;99.90;;;;;;5065357;28;20196;-63
2023/04/10 07:36:40;;;;;;;7.70;6.63;;;10.60;99.90;;;;;;5074816;28;20595;-58
2023/04/10 07:39:07;;;;;;;7.10;5.60;;;10.60;99.90;;;;;;5077454;28;20640;-59
2023/04/10 07:41:34;;;;;;;7.03;5.37;;;10.70;99.90;;;;;;5068651;28;20286;-58
2023/04/10 07:44:01;;;;;;;5.97;4.97;;;10.90;99.90;;;;;;5073878;28;20371;-59
2023/04/10 07:46:28;;;;;;;7.23;5.57;;;11.00;99.90;;;;;;5074268;28;20604;-58
2023/04/10 07:48:55;;;;;;;6.53;5.30;;;11.10;99.90;;;;;;5074303;28;20566;-59
2023/04/10 07:51:22;;;;;;;6.80;5.63;;;11.20;99.90;;;;;;5074519;28;20203;-59
2023/04/10 07:53:49;;;;;;;7.87;5.60;;;11.40;99.90;;;;;;5073383;28;20320;-59
2023/04/10 07:56:17;;;;;;;7.27;5.17;;;11.60;99.90;;;;;;5072450;28;20236;-59
2023/04/10 07:58:45;;;;;;;6.27;4.93;;;11.70;99.90;;;;;;5072869;28;20650;-59
2023/04/10 08:01:13;;;;;;;5.90;4.77;;;11.80;99.90;;;;;;5067760;28;20192;-59
2023/04/10 08:03:41;;;;;;;7.33;5.50;;;12.00;99.90;;;;;;5072393;28;20621;-60
2023/04/10 08:06:09;;;;;;;6.50;5.40;;;11.90;99.90;;;;;;5072409;28;20256;-59
2023/04/10 08:08:37;;;;;;;8.20;5.40;;;12.00;99.90;;;;;;5076986;28;20540;-59
2023/04/10 08:11:24;;;;;;;7.17;5.53;;;12.00;99.90;;;;;;5074304;28;20323;-59
2023/04/10 08:13:56;;;;;;;6.77;5.13;;;12.10;99.90;;;;;;5075052;28;20597;-62
2023/04/10 08:16:29;;;;;;;6.30;5.03;;;12.00;99.90;;;;;;5068546;28;20235;-59
2023/04/10 08:18:56;;;;;;;7.73;4.87;;;11.90;99.90;;;;;;5073410;28;20679;-59
2023/04/10 08:21:27;;;;;;;6.53;5.00;;;11.90;99.90;;;;;;5072139;28;20225;-59
2023/04/10 08:23:55;;;;;;;7.90;5.00;;;12.00;99.90;;;;;;5073186;28;20722;-64
2023/04/10 08:26:23;;;;;;;5.83;4.93;;;12.20;99.90;;;;;;5073898;28;20338;-59
2023/04/10 08:28:52;;;;;;;6.47;4.90;;;12.30;99.90;;;;;;5071690;28;20291;-59
2023/04/10 08:31:20;;;;;;;6.27;5.20;;;12.30;99.90;;;;;;5069211;28;21495;-59
2023/04/10 08:33:48;;;;;;;5.53;4.93;;;12.40;99.90;;;;;;5056651;28;20208;-59
2023/04/10 08:36:15;;;;;;;6.17;5.03;;;12.50;99.90;;;;;;5052818;28;20613;-59
2023/04/10 08:38:46;;;;;;;5.50;4.47;;;12.40;99.90;;;;;;5055909;28;20740;-59
2023/04/10 08:41:17;;;;;;;6.47;4.97;;;12.50;99.90;;;;;;5049439;28;20206;-59
2023/04/10 08:43:45;;;;;;;6.10;4.90;;;12.50;99.90;;;;;;5053433;28;20203;-59
2023/04/10 08:46:13;;;;;;;5.13;4.50;;;12.60;99.90;;;;;;5051108;28;20223;-59
2023/04/10 08:48:58;;;;;;;6.00;4.70;;;12.70;99.90;;;;;;5049510;28;20204;-59
2023/04/10 08:51:31;;;;;;;5.70;5.10;;;12.70;99.90;;;;;;5049463;28;20234;-60
2023/04/10 08:54:06;;;;;;;6.57;5.37;;;12.70;99.90;;;;;;5053952;28;20202;-59
2023/04/10 08:56:36;;;;;;;6.07;4.70;;;12.70;99.90;;;;;;5050894;28;20199;-59
2023/04/10 08:59:04;;;;;;;5.63;4.57;;;12.80;99.90;;;;;;5051463;28;20203;-61
2023/04/10 09:01:31;;;;;;;7.37;4.57;;;12.90;99.90;;;;;;5049359;28;20298;-59
2023/04/10 09:03:58;;;;;;;5.47;4.47;;;12.90;99.90;;;;;;5051917;28;20202;-60
2023/04/10 09:06:26;;;;;;;5.47;4.63;;;12.90;99.90;;;;;;5049700;28;20310;-58
2023/04/10 09:08:53;;;;;;;5.87;4.40;;;12.90;99.90;;;;;;5051354;28;20199;-58
2023/04/10 09:11:20;;;;;;;7.07;5.00;;;12.80;99.90;;;;;;5052242;28;20724;-58
2023/04/10 09:13:47;;;;;;;5.83;4.93;;;12.90;99.90;;;;;;5053121;28;20203;-60
2023/04/10 09:16:13;;;;;;;5.13;4.63;;;12.80;99.90;;;;;;5055976;28;20284;-58
2023/04/10 09:18:49;;;;;;;6.27;4.93;;;12.70;99.90;;;;;;5052907;28;20750;-58
2023/04/10 09:21:19;;;;;;;6.07;4.80;;;12.70;99.90;;;;;;5056701;28;20288;-59
2023/04/10 09:23:47;;;;;;;5.83;5.27;;;12.90;99.90;;;;;;5053084;28;21029;-58
2023/04/10 09:26:30;;;;;;;6.20;4.90;;;12.90;99.90;;;;;;5055947;28;20297;-58
2023/04/10 09:29:05;;;;;;;5.53;4.90;;;12.80;99.90;;;;;;5054468;28;20195;-60
2023/04/10 09:31:33;;;;;;;6.23;4.97;;;12.90;99.90;;;;;;5049715;28;20206;-60
2023/04/10 09:34:13;;;;;;;6.60;4.93;;;13.00;99.90;;;;;;5053282;28;20282;-58
2023/04/10 09:36:42;;;;;;;6.30;5.17;;;13.10;99.90;;;;;;5048523;28;20728;-62
2023/04/10 09:39:10;;;;;;;5.90;4.97;;;13.10;99.90;;;;;;5046679;28;20643;-58
2023/04/10 09:41:51;;;;;;;6.57;5.23;;;13.10;99.90;;;;;;5048345;28;20262;-59
2023/04/10 09:44:29;;;;;;;5.93;4.73;;;13.20;99.90;;;;;;5043777;28;20205;-59
2023/04/10 09:46:57;;;;;;;5.77;4.60;;;13.20;99.90;;;;;;5045180;28;20768;-61
2023/04/10 09:49:24;;;;;;;7.00;4.57;;;13.30;99.90;;;;;;5043541;28;20250;-59
2023/04/10 09:51:52;;;;;;;5.93;4.73;;;13.40;99.90;;;;;;5046192;28;20207;-58
2023/04/10 09:54:35;;;;;;;5.67;4.77;;;13.30;99.90;;;;;;5040923;28;20201;-61
2023/04/10 09:57:03;;;;;;;6.77;5.40;;;13.40;99.90;;;;;;5042385;28;20213;-61
2023/04/10 09:59:30;;;;;;;5.30;4.30;;;13.50;99.90;;;;;;5049560;28;20230;-61
2023/04/10 10:01:57;;;;;;;5.00;4.50;;;13.60;99.90;;;;;;5054893;28;20205;-61
2023/04/10 10:04:25;;;;;;;6.53;4.63;;;13.60;99.90;;;;;;5050844;28;20207;-62
2023/04/10 10:06:53;;;;;;;4.97;4.47;;;13.80;99.90;;;;;;5053850;28;20216;-61
2023/04/10 10:09:20;;;;;;;4.40;3.87;;;13.80;99.90;;;;;;5044986;28;20202;-61
2023/04/10 10:11:50;;;;;;;5.73;4.90;;;13.90;99.90;;;;;;5044428;28;20244;-62
2023/04/10 10:14:20;;;;;;;7.27;4.83;;;13.80;99.90;;;;;;5059447;28;20560;-61
2023/04/10 10:16:51;;;;;;;5.90;4.87;;;13.90;99.90;;;;;;5049774;28;20206;-61
2023/04/10 10:19:29;;;;;;;5.10;4.60;;;13.90;99.90;;;;;;5040661;28;20225;-61
2023/04/10 10:21:59;;;;;;;4.73;3.97;;;14.00;99.90;;;;;;5040564;28;20232;-61
2023/04/10 10:24:27;;;;;;;5.47;4.33;;;14.10;99.90;;;;;;5038101;28;20209;-61
2023/04/10 10:26:56;;;;;;;4.77;3.87;;;14.30;99.90;;;;;;5041272;28;20216;-61
2023/04/10 10:29:23;;;;;;;5.43;4.00;;;14.40;99.90;;;;;;5049067;28;20228;-61
2023/04/10 10:31:52;;;;;;;6.77;4.50;;;14.60;99.90;;;;;;5038136;28;20214;-61
2023/04/10 10:34:20;;;;;;;4.43;3.80;;;14.80;99.90;;;;;;5037576;28;20259;-61
2023/04/10 10:36:47;;;;;;;5.30;4.03;;;14.80;99.90;;;;;;5048716;28;20316;-61
2023/04/10 10:39:41;;;;;;;4.53;3.97;;;14.70;99.90;;;;;;5050172;28;20290;-61
2023/04/10 10:42:45;;;;;;;5.23;4.07;;;14.70;99.90;;;;;;5049424;28;20207;-60
2023/04/10 10:45:25;;;;;;;4.67;3.87;;;14.60;99.90;;;;;;5052665;28;20235;-64
2023/04/10 10:47:53;;;;;;;3.97;3.47;;;14.80;99.90;;;;;;5050197;28;20196;-61
2023/04/10 10:50:22;;;;;;;5.27;3.63;;;14.80;99.90;;;;;;5060980;28;20195;-61
2023/04/10 10:52:52;;;;;;;3.57;3.27;;;15.00;99.90;;;;;;5050107;28;20266;-61
2023/04/10 10:55:31;;;;;;;5.83;3.50;;;15.10;99.90;;;;;;5041237;28;20212;-61
2023/04/10 10:58:22;;;;;;;4.40;3.50;;;15.30;99.90;;;;;;5042866;28;20239;-61
2023/04/10 11:00:53;;;;;;;5.13;3.70;;;15.50;99.90;;;;;;5038091;28;20200;-61
2023/04/10 11:03:21;;;;;;;5.30;3.77;;;15.40;99.90;;;;;;5042979;28;20217;-61
2023/04/10 11:05:49;;;;;;;4.47;3.60;;;15.20;99.90;;;;;;5044547;28;20336;-61
2023/04/10 11:08:16;;;;;;;4.23;3.63;;;15.30;99.90;;;;;;5046364;28;20621;-61
2023/04/10 11:11:06;;;;;;;3.90;3.47;;;15.30;99.90;;;;;;5044886;28;20288;-61
2023/04/10 11:13:42;;;;;;;4.43;3.33;;;15.40;99.90;;;;;;5044803;28;20209;-61
2023/04/10 11:16:10;;;;;;;4.10;3.70;;;15.50;99.90;;;;;;5045035;28;21236;-60
2023/04/10 11:18:46;;;;;;;3.80;3.40;;;15.80;99.90;;;;;;5043065;28;20242;-60
2023/04/10 11:21:28;;;;;;;3.67;3.13;;;16.10;99.90;;;;;;5048377;28;20208;-60
2023/04/10 11:23:55;;;;;;;3.93;3.33;;;16.10;99.90;;;;;;5036881;28;20674;-61
2023/04/10 11:29:02;;;;;;;3.37;3.07;;;16.30;99.90;;;;;;5055339;28;20277;-62
2023/04/10 11:31:30;;;;;;;3.43;3.13;;;16.50;99.90;;;;;;5051249;28;20209;-62
2023/04/10 11:34:06;;;;;;;3.33;2.97;;;16.40;99.90;;;;;;5055299;28;20263;-61
2023/04/10 11:36:37;;;;;;;5.17;3.53;;;16.50;99.90;;;;;;5065293;28;20263;-61
2023/04/10 11:39:09;;;;;;;3.77;3.10;;;16.30;99.90;;;;;;5071056;28;20196;-60
2023/04/10 11:41:38;;;;;;;3.77;3.10;;;16.30;99.90;;;;;;5056957;28;20198;-61
2023/04/10 11:44:07;;;;;;;3.80;3.30;;;16.30;99.90;;;;;;5067131;28;20216;-61
2023/04/10 11:46:38;;;;;;;5.33;3.23;;;16.40;99.90;;;;;;5067695;28;20614;-61
2023/04/10 11:49:08;;;;;;;6.40;3.00;;;16.40;99.90;;;;;;5074851;28;21166;-61
2023/04/10 11:51:36;;;;;;;4.67;3.20;;;16.20;99.90;;;;;;5054781;28;20656;-61
2023/04/10 11:54:23;;;;;;;3.30;3.00;;;16.20;99.90;;;;;;5073523;28;20721;-61
2023/04/10 11:57:11;;;;;;;4.17;3.00;;;16.20;99.90;;;;;;5073487;28;20268;-64
2023/04/10 11:59:38;;;;;;;3.17;2.87;;;16.30;99.90;;;;;;5074677;28;20220;-59
2023/04/10 12:02:14;;;;;;;3.17;2.87;;;16.60;99.90;;;;;;5068016;28;20235;-60
2023/04/10 12:04:43;;;;;;;4.30;3.50;;;16.70;99.90;;;;;;5061363;28;21522;-60
2023/04/10 12:07:10;;;;;;;3.30;3.00;;;16.80;99.90;;;;;;5074125;28;20307;-60
2023/04/10 12:09:37;;;;;;;3.53;2.77;;;16.80;99.90;;;;;;5050469;28;20217;-61
2023/04/10 12:12:06;;;;;;;7.97;4.33;;;16.70;99.90;;;;;;5067730;28;20197;-60
2023/04/10 12:14:38;;;;;;;4.43;2.80;;;16.60;99.90;;;;;;5076882;28;20223;-61
2023/04/10 12:17:08;;;;;;;3.17;2.77;;;16.60;99.90;;;;;;5074301;28;20216;-60
2023/04/10 12:19:35;;;;;;;3.57;3.00;;;16.40;99.90;;;;;;5070649;28;20307;-60
2023/04/10 12:22:02;;;;;;;4.23;2.97;;;16.40;99.90;;;;;;5074375;28;20201;-60
2023/04/10 12:24:48;;;;;;;3.40;2.80;;;16.30;99.90;;;;;;5071583;28;20580;-60
2023/04/10 12:27:16;;;;;;;2.50;2.23;;;16.20;99.90;;;;;;5071839;28;20215;-60
2023/04/10 12:29:45;;;;;;;3.27;2.90;;;16.30;99.90;;;;;;5074894;28;20199;-59
2023/04/10 12:32:12;;;;;;;3.30;3.00;;;16.30;99.90;;;;;;5076132;28;20205;-60
2023/04/10 12:34:39;;;;;;;3.10;2.33;;;16.40;99.90;;;;;;5071961;28;20201;-60
2023/04/10 12:37:10;;;;;;;4.13;2.50;;;16.40;99.90;;;;;;5070341;28;20788;-59
2023/04/10 12:39:37;;;;;;;3.00;2.60;;;16.30;99.90;;;;;;5072360;28;20204;-59
2023/04/10 12:42:19;;;;;;;4.77;4.30;;;16.30;99.90;;;;;;5072443;28;20502;-59
2023/04/10 12:44:55;;;;;;;3.10;2.80;;;16.20;99.90;;;;;;5071096;28;20202;-59
2023/04/10 12:47:23;;;;;;;2.97;2.67;;;16.20;99.90;;;;;;5066811;28;20514;-59
2023/04/10 12:50:12;;;;;;;2.70;2.47;;;16.20;99.90;;;;;;5071506;28;20276;-59
2023/04/10 12:52:41;;;;;;;3.30;2.20;;;16.20;99.90;;;;;;5069661;28;20208;-59
2023/04/10 12:55:14;;;;;;;3.87;2.77;;;16.20;99.90;;;;;;5067287;28;20204;-63
2023/04/10 12:57:43;;;;;;;3.30;2.70;;;16.30;99.90;;;;;;5071926;28;20242;-59
2023/04/10 13:00:13;;;;;;;3.00;2.50;;;16.20;99.90;;;;;;5073396;28;20730;-59
2023/04/10 13:02:40;;;;;;;2.60;2.40;;;16.20;99.90;;;;;;5065825;28;20362;-59
2023/04/10 13:05:08;;;;;;;2.93;2.50;;;16.20;99.90;;;;;;5070783;28;20295;-59
2023/04/10 13:07:36;;;;;;;3.03;2.73;;;16.20;99.90;;;;;;5077899;28;21010;-60